createdAt,value
2019-02-24T00:00:00.292Z,33.13
2019-02-24T00:04:12.694Z,25.27
2019-02-24T00:08:25.110Z,29.17
2019-02-24T00:12:37.933Z,28.53
2019-02-24T00:16:50.419Z,25.97
2019-02-24T00:21:03.342Z,27.33
2019-02-24T00:25:15.896Z,29.87
2019-02-24T00:29:28.892Z,26.67
2019-02-24T00:33:41.449Z,27.60
2019-02-24T00:37:53.863Z,25.83
2019-02-24T00:42:06.758Z,24.10
2019-02-24T00:46:19.280Z,25.73
2019-02-24T00:50:32.393Z,21.87
2019-02-24T00:54:44.864Z,26.53
2019-02-24T00:58:57.739Z,23.97
2019-02-24T01:03:10.206Z,25.30
2019-02-24T01:07:22.612Z,27.53
2019-02-24T01:11:35.505Z,25.47
2019-02-24T01:15:47.950Z,24.97
2019-02-24T01:20:00.402Z,25.23
2019-02-24T01:24:13.166Z,27.63
2019-02-24T01:28:25.731Z,26.03
2019-02-24T01:32:38.612Z,23.27
2019-02-24T01:36:51.164Z,24.73
2019-02-24T01:41:03.482Z,24.53
2019-02-24T01:45:16.362Z,23.53
2019-02-24T01:49:28.884Z,22.20
2019-02-24T01:53:41.325Z,24.97
2019-02-24T01:57:54.093Z,23.80
2019-02-24T02:02:06.580Z,24.37
2019-02-24T02:06:18.892Z,25.47
2019-02-24T02:10:31.776Z,24.83
2019-02-24T02:14:44.237Z,25.87
2019-02-24T02:18:56.542Z,25.47
2019-02-24T02:23:09.041Z,26.47
2019-02-24T02:27:21.740Z,27.93
2019-02-24T02:31:34.204Z,25.27
2019-02-24T02:35:46.617Z,25.03
2019-02-24T02:39:59.508Z,27.83
2019-02-24T02:44:11.957Z,26.20
2019-02-24T02:48:24.273Z,27.13
2019-02-24T02:52:37.123Z,28.50
2019-02-24T02:56:49.843Z,32.07
2019-02-24T03:01:02.914Z,31.60
2019-02-24T03:05:15.373Z,32.60
2019-02-24T03:09:28.458Z,32.93
2019-02-24T03:13:40.917Z,32.30
2019-02-24T03:17:53.224Z,31.77
2019-02-24T03:22:05.540Z,28.87
2019-02-24T03:26:17.917Z,32.70
2019-02-24T03:30:30.577Z,29.57
2019-02-24T03:34:43.100Z,35.47
2019-02-24T03:38:55.987Z,34.33
2019-02-24T03:43:08.645Z,41.23
2019-02-24T03:47:21.052Z,36.83
2019-02-24T03:51:33.954Z,40.13
2019-02-24T03:55:46.685Z,40.83
2019-02-24T03:59:59.604Z,41.10
2019-02-24T04:04:12.165Z,47.30
2019-02-24T04:08:24.566Z,45.77
2019-02-24T04:12:37.464Z,42.87
2019-02-24T04:16:49.930Z,38.37
2019-02-24T04:21:02.908Z,37.23
2019-02-24T04:25:15.468Z,40.27
2019-02-24T04:29:29.083Z,37.67
2019-02-24T04:33:41.828Z,38.77
2019-02-24T04:37:54.639Z,43.27
2019-02-24T04:42:06.976Z,40.23
2019-02-24T04:46:19.276Z,40.80
2019-02-24T04:50:32.080Z,39.17
2019-02-24T04:54:44.628Z,38.87
2019-02-24T04:58:57.126Z,40.40
2019-02-24T05:03:09.820Z,36.77
2019-02-24T05:07:22.293Z,38.33
2019-02-24T05:11:34.919Z,42.50
2019-02-24T05:15:47.730Z,48.17
2019-02-24T05:20:00.386Z,44.37
2019-02-24T05:24:12.767Z,46.80
2019-02-24T05:28:25.652Z,50.27
2019-02-24T05:32:38.200Z,49.13
2019-02-24T05:36:50.995Z,51.07
2019-02-24T05:41:03.556Z,46.73
2019-02-24T05:45:15.975Z,44.17
2019-02-24T05:49:28.749Z,44.43
2019-02-24T05:53:41.205Z,44.80
2019-02-24T05:57:53.643Z,47.60
2019-02-24T06:02:06.681Z,45.57
2019-02-24T06:06:19.177Z,47.37
2019-02-24T06:10:32.240Z,45.40
2019-02-24T06:14:44.725Z,43.77
2019-02-24T06:18:57.029Z,50.87
2019-02-24T06:23:09.455Z,51.43
2019-02-24T06:27:22.241Z,53.67
2019-02-24T06:31:34.696Z,54.63
2019-02-24T06:35:47.072Z,51.00
2019-02-24T06:39:59.779Z,46.10
2019-02-24T06:44:12.248Z,47.30
2019-02-24T06:48:24.658Z,49.10
2019-02-24T06:52:38.104Z,48.53
2019-02-24T06:56:50.617Z,41.70
2019-02-24T07:01:03.569Z,45.77
2019-02-24T07:05:16.153Z,51.00
2019-02-24T07:09:29.051Z,48.43
2019-02-24T07:13:41.613Z,44.63
2019-02-24T07:17:54.022Z,49.10
2019-02-24T07:22:06.916Z,45.70
2019-02-24T07:26:19.363Z,45.77
2019-02-24T07:30:31.680Z,48.27
2019-02-24T07:34:43.992Z,45.07
2019-02-24T07:38:56.368Z,44.33
2019-02-24T07:43:09.193Z,48.53
2019-02-24T07:47:21.657Z,48.10
2019-02-24T07:51:34.540Z,43.60
2019-02-24T07:55:47.225Z,45.00
2019-02-24T07:59:59.776Z,47.17
2019-02-24T08:04:12.397Z,44.90
2019-02-24T08:08:24.936Z,43.40
2019-02-24T08:12:37.852Z,42.53
2019-02-24T08:16:50.305Z,47.20
2019-02-24T08:21:02.690Z,43.90
2019-02-24T08:25:15.607Z,43.53
2019-02-24T08:29:29.687Z,43.10
2019-02-24T08:33:42.008Z,41.63
2019-02-24T08:37:54.804Z,42.37
2019-02-24T08:42:07.425Z,40.10
2019-02-24T08:46:19.772Z,41.20
2019-02-24T08:50:32.465Z,40.13
2019-02-24T08:54:44.936Z,38.80
2019-02-24T08:58:58.025Z,36.13
2019-02-24T09:03:10.637Z,38.07
2019-02-24T09:07:22.982Z,39.57
2019-02-24T09:11:35.989Z,33.50
2019-02-24T09:15:48.324Z,38.00
2019-02-24T09:20:01.208Z,36.83
2019-02-24T09:24:13.779Z,35.77
2019-02-24T09:28:26.194Z,34.80
2019-02-24T09:32:38.968Z,36.17
2019-02-24T09:36:51.429Z,35.47
2019-02-24T09:41:06.349Z,35.47
2019-02-24T09:45:18.717Z,34.83
2019-02-24T09:49:31.608Z,38.83
2019-02-24T09:53:44.166Z,32.23
2019-02-24T09:57:56.817Z,33.77
2019-02-24T10:02:09.776Z,33.37
2019-02-24T10:06:22.227Z,32.80
2019-02-24T10:10:35.111Z,29.37
2019-02-24T10:14:47.742Z,29.67
2019-02-24T10:19:00.664Z,30.43
2019-02-24T10:23:13.228Z,27.17
2019-02-24T10:27:25.634Z,30.93
2019-02-24T10:31:38.521Z,28.20
2019-02-24T10:35:51.080Z,24.47
2019-02-24T10:40:03.398Z,28.07
2019-02-24T10:44:15.910Z,26.67
2019-02-24T10:48:28.697Z,24.93
2019-02-24T10:52:41.156Z,25.03
2019-02-24T10:56:53.569Z,37.77
2019-02-24T11:01:06.620Z,38.10
2019-02-24T11:05:19.225Z,35.37
2019-02-24T11:09:32.108Z,33.73
2019-02-24T11:13:44.665Z,35.43
2019-02-24T11:17:57.041Z,39.97
2019-02-24T11:22:09.971Z,38.03
2019-02-24T11:26:22.654Z,35.77
2019-02-24T11:30:35.508Z,36.40
2019-02-24T11:34:47.979Z,34.27
2019-02-24T11:39:00.380Z,37.77
2019-02-24T11:43:13.267Z,34.47
2019-02-24T11:47:25.900Z,35.90
2019-02-24T11:51:38.720Z,38.13
2019-02-24T11:55:51.384Z,38.47
2019-02-24T12:00:06.813Z,38.70
2019-02-24T12:04:19.820Z,34.17
2019-02-24T12:08:32.317Z,35.87
2019-02-24T12:12:45.410Z,37.73
2019-02-24T12:16:57.924Z,38.93
2019-02-24T12:21:10.734Z,36.57
2019-02-24T12:25:23.415Z,36.23
2019-02-24T12:29:38.245Z,36.07
2019-02-24T12:33:50.807Z,37.13
2019-02-24T12:38:03.212Z,38.77
2019-02-24T12:42:16.105Z,39.73
2019-02-24T12:46:28.660Z,36.63
2019-02-24T12:50:41.039Z,40.67
2019-02-24T12:54:53.858Z,40.30
2019-02-24T12:59:06.483Z,40.10
2019-02-24T13:03:23.970Z,34.13
2019-02-24T13:07:33.249Z,37.70
2019-02-24T13:11:45.712Z,35.77
2019-02-24T13:15:58.125Z,37.33
2019-02-24T13:20:11.463Z,35.50
2019-02-24T13:24:23.881Z,34.67
2019-02-24T13:28:37.015Z,35.53
2019-02-24T13:32:50.005Z,40.33
2019-02-24T13:37:02.665Z,39.97
2019-02-24T13:41:15.082Z,36.60
2019-02-24T13:45:27.493Z,35.97
2019-02-24T13:49:43.044Z,37.03
2019-02-24T13:53:55.682Z,39.77
2019-02-24T13:58:08.012Z,38.90
2019-02-24T14:02:24.072Z,41.50
2019-02-24T14:06:35.067Z,35.03
2019-02-24T14:10:47.995Z,42.07
2019-02-24T14:15:00.696Z,42.87
2019-02-24T14:19:13.660Z,37.10
2019-02-24T14:23:26.384Z,39.80
2019-02-24T14:27:38.812Z,40.33
2019-02-24T14:31:51.607Z,41.13
2019-02-24T14:36:04.165Z,41.27
2019-02-24T14:40:17.248Z,38.33
2019-02-24T14:44:29.811Z,35.70
2019-02-24T14:48:42.118Z,38.63
2019-02-24T14:52:55.014Z,38.83
2019-02-24T14:57:07.637Z,38.00
2019-02-24T15:01:20.038Z,38.10
2019-02-24T15:05:32.977Z,38.07
2019-02-24T15:09:45.429Z,39.50
2019-02-24T15:13:58.315Z,36.80
2019-02-24T15:18:10.872Z,43.43
2019-02-24T15:22:23.187Z,38.70
2019-02-24T15:26:35.578Z,36.77
2019-02-24T15:30:48.283Z,35.33
2019-02-24T15:35:00.748Z,35.73
2019-02-24T15:39:13.732Z,36.37
2019-02-24T15:43:26.292Z,32.70
2019-02-24T15:47:38.796Z,34.07
2019-02-24T15:51:51.597Z,32.97
2019-02-24T15:56:05.043Z,32.70
2019-02-24T16:00:18.173Z,37.97
2019-02-24T16:04:31.053Z,33.70
2019-02-24T16:08:43.652Z,33.37
2019-02-24T16:12:56.538Z,36.30
2019-02-24T16:17:09.200Z,36.63
2019-02-24T16:21:22.185Z,34.57
2019-02-24T16:25:34.736Z,36.63
2019-02-24T16:29:47.403Z,34.57
2019-02-24T16:34:00.148Z,34.80
2019-02-24T16:38:12.616Z,36.40
2019-02-24T16:42:25.593Z,34.47
2019-02-24T16:46:38.059Z,40.20
2019-02-24T16:50:50.365Z,35.33
2019-02-24T16:55:03.248Z,35.93
2019-02-24T16:59:15.811Z,39.60
2019-02-24T17:03:28.347Z,34.73
2019-02-24T17:07:41.223Z,35.97
2019-02-24T17:11:53.674Z,32.33
2019-02-24T17:16:06.289Z,34.00
2019-02-24T17:20:19.541Z,36.67
2019-02-24T17:24:31.933Z,39.33
2019-02-24T17:28:44.727Z,34.67
2019-02-24T17:32:57.249Z,38.10
2019-02-24T17:37:10.059Z,38.63
2019-02-24T17:41:22.524Z,36.20
2019-02-24T17:45:34.957Z,35.77
2019-02-24T17:49:47.833Z,36.50
2019-02-24T17:54:00.286Z,34.30
2019-02-24T17:58:12.693Z,33.30
2019-02-24T18:02:25.653Z,32.77
2019-02-24T18:06:38.218Z,45.33
2019-02-24T18:10:53.705Z,40.13
2019-02-24T18:15:08.375Z,39.83
2019-02-24T18:19:20.711Z,42.70
2019-02-24T18:23:33.597Z,34.50
2019-02-24T18:27:46.064Z,36.40
2019-02-24T18:31:58.949Z,38.13
2019-02-24T18:36:13.285Z,38.90
2019-02-24T18:40:26.237Z,42.63
2019-02-24T18:44:38.784Z,42.33
2019-02-24T18:48:51.197Z,38.50
2019-02-24T18:53:06.426Z,41.33
2019-02-24T18:57:22.871Z,46.83
2019-02-24T19:01:36.015Z,42.53
2019-02-24T19:05:48.674Z,44.37
2019-02-24T19:10:01.532Z,41.30
2019-02-24T19:14:13.988Z,45.40
2019-02-24T19:18:26.552Z,40.17
2019-02-24T19:22:39.300Z,43.43
2019-02-24T19:26:51.762Z,36.43
2019-02-24T19:31:04.169Z,47.83
2019-02-24T19:35:16.745Z,52.17
2019-02-24T19:39:29.414Z,50.60
2019-02-24T19:43:41.926Z,44.93
2019-02-24T19:47:54.455Z,53.53
2019-02-24T19:52:07.160Z,41.07
2019-02-24T19:56:19.580Z,50.47
2019-02-24T20:00:31.893Z,38.50
2019-02-24T20:04:44.272Z,43.63
2019-02-24T20:08:57.204Z,47.03
2019-02-24T20:13:09.448Z,50.80
2019-02-24T20:17:21.766Z,59.37
2019-02-24T20:21:34.647Z,62.03
2019-02-24T20:25:47.713Z,61.27
2019-02-24T20:30:00.505Z,69.63
2019-02-24T20:34:12.889Z,57.20
2019-02-24T20:38:25.335Z,62.30
2019-02-24T20:42:38.708Z,58.57
2019-02-24T20:46:51.121Z,63.30
2019-02-24T20:51:03.910Z,70.27
2019-02-24T20:55:16.365Z,75.70
2019-02-24T20:59:29.914Z,64.83
2019-02-24T21:03:42.788Z,60.67
2019-02-24T21:07:55.637Z,55.93
2019-02-24T21:12:08.613Z,54.60
2019-02-24T21:16:21.109Z,60.90
2019-02-24T21:20:33.648Z,57.63
2019-02-24T21:24:46.513Z,64.30
2019-02-24T21:28:58.974Z,55.33
2019-02-24T21:33:11.386Z,52.30
2019-02-24T21:37:24.172Z,53.17
2019-02-24T21:41:36.693Z,51.03
2019-02-24T21:45:49.082Z,51.53
2019-02-24T21:50:01.863Z,54.00
2019-02-24T21:54:14.349Z,57.03
2019-02-24T21:58:27.224Z,51.90
2019-02-24T22:02:39.894Z,47.03
2019-02-24T22:06:52.329Z,43.90
2019-02-24T22:11:05.576Z,53.90
2019-02-24T22:15:18.769Z,54.13
2019-02-24T22:19:31.128Z,49.40
2019-02-24T22:23:43.545Z,45.10
2019-02-24T22:27:55.853Z,42.33
2019-02-24T22:32:08.552Z,53.07
2019-02-24T22:36:21.017Z,56.63
2019-02-24T22:40:34.007Z,55.87
2019-02-24T22:44:46.640Z,54.37
2019-02-24T22:48:59.553Z,46.93
2019-02-24T22:53:12.100Z,44.23
2019-02-24T22:57:24.502Z,45.63
2019-02-24T23:01:40.532Z,44.53
2019-02-24T23:05:53.099Z,44.30
2019-02-24T23:10:06.300Z,42.37
2019-02-24T23:14:18.807Z,37.03
2019-02-24T23:18:32.350Z,34.10
2019-02-24T23:22:45.311Z,31.63
2019-02-24T23:26:57.761Z,29.43
2019-02-24T23:31:10.105Z,26.70
2019-02-24T23:35:22.491Z,23.93
2019-02-24T23:39:35.986Z,23.13
2019-02-24T23:43:48.382Z,23.27
2019-02-24T23:48:03.345Z,25.13
2019-02-24T23:52:18.587Z,26.60
2019-02-24T23:56:31.291Z,25.17
